Lacon, IL

11:11 AM CST on February 25, 2018 (GMT -0600)
Lacon | | Change Station
Active Advisory: Flood Warning

Elev 568 ft 41.01 °N, 89.33 °W | Updated 16 minutes ago

Clear
Clear
39 °F
Feels Like 33 °F
N
8
Wind Variable Wind from WSW
Gusts 17 mph

Today
High -- | Low -- °F
--% Chance of Precip.
Yesterday
High -- | Low -- °F
Precip. -- in
Pressure 29.99 in
Visibility 10.0 miles
Clouds Clear
Windchill 33 °F
Dew Point 24 °F
Humidity 55%
Rainfall 0.00 in
Snow Depth Not available.
6:37 AM 5:44 PM
Waxing Gibbous, 76% visible
METAR KC75 251655Z AUTO 25007G15KT 10SM CLR 04/M04 A2999 RMK AO2 T00381044
Pressure 29.99 in
Visibility 10.0 miles
Clouds Clear
Windchill 33 °F
Dew Point 24 °F
Humidity 55%
Rainfall 0.00 in
Snow Depth Not available.
6:37 AM 5:44 PM
Waxing Gibbous, 76% visible
METAR KC75 251655Z AUTO 25007G15KT 10SM CLR 04/M04 A2999 RMK AO2 T00381044

Get Your Daily Forecast Email!

Thanks for signing up!

Be on the lookout for a verification email in your inbox.

You'll start receiving severe weather alerts in your inbox..

×

10-Day Weather Forecast

Almanac

Astronomy

Feb. 25, 2018 Rise Set
Actual Time
Civil Twilight
Nautical Twilight
Astronomical Twilight
Moon
Length of Visible Light
Length of Day
Tomorrow will be .
, % of the Moon is Illuminated

Today's Extremes

State Highs State Lows

Community

WunderPhotos

Category 6

Welcome to Category 6. This is the collective home for Weather Underground's featured writeups by Dr. Jeff Masters (right), Bob Henson (left), Chris Burt, and other regular contributors.

Nearby

Air Quality

  Air Quality AQ Index Pollutant
Not available.

Snow Depth

Station Depth Elevation

Earthquake Activity

City Distance Mag. Time & Date
Minimum magnitude displayed is 2.5.

Coastal Water Temperatures

Place Temperature

Stations

Nearby Weather Stations

Station Location Temp. Windchill Dew Point Humidity Wind Precip. Elev Updated Type
                   

Watches & Warnings

Flood Warning
Issued: 10:32 AM CST Feb. 25, 2018 – National Weather Service

The Flood Warning continues for
the Illinois River at Henry.
* Until further notice.
* At 945 am Sunday the stage was 28.8 feet.
* Flood stage is 23.0 feet.
* Moderate flooding is occurring and moderate flooding is forecast.
* Forecast... the river will continue rising to near 28.9 feet by this
evening then begin falling.
* Impact... at 29.6 feet... a few homes begin to flood in Henry.



                  Fld observed forecast 6am
location stg stg day time Mon Tue Wed

Illinois River
Henry 23 28.8 sun 10 am 28.9 28.6 28.2



Lat... Lon 4131 8939 4135 8929 4113 8929 4093 8941
      4093 8952 4115 8939